sensor_id;sensor_type;location;lat;lon;timestamp;P1;durP1;ratioP1;P2;durP2;ratioP2
15194;SDS011;7698;42.478;23.756;2023-01-15T00:01:42;12.68;;;10.15;;
15194;SDS011;7698;42.478;23.756;2023-01-15T00:04:11;14.20;;;11.87;;
15194;SDS011;7698;42.478;23.756;2023-01-15T00:06:39;12.32;;;10.68;;
15194;SDS011;7698;42.478;23.756;2023-01-15T00:09:07;13.25;;;11.23;;
15194;SDS011;7698;42.478;23.756;2023-01-15T00:11:38;12.38;;;10.88;;
15194;SDS011;7698;42.478;23.756;2023-01-15T00:14:05;17.35;;;13.70;;
15194;SDS011;7698;42.478;23.756;2023-01-15T00:16:32;14.73;;;11.13;;
15194;SDS011;7698;42.478;23.756;2023-01-15T00:18:59;17.20;;;12.02;;
15194;SDS011;7698;42.478;23.756;2023-01-15T00:21:29;13.70;;;10.70;;
15194;SDS011;7698;42.478;23.756;2023-01-15T00:23:56;12.23;;;9.40;;
15194;SDS011;7698;42.478;23.756;2023-01-15T00:26:41;13.38;;;11.35;;
15194;SDS011;7698;42.478;23.756;2023-01-15T00:29:25;15.20;;;12.13;;
15194;SDS011;7698;42.478;23.756;2023-01-15T00:31:53;15.23;;;13.45;;
15194;SDS011;7698;42.478;23.756;2023-01-15T00:34:22;13.45;;;10.80;;
15194;SDS011;7698;42.478;23.756;2023-01-15T00:36:51;11.48;;;9.13;;
15194;SDS011;7698;42.478;23.756;2023-01-15T00:39:18;15.63;;;11.85;;
15194;SDS011;7698;42.478;23.756;2023-01-15T00:41:45;13.57;;;11.07;;
15194;SDS011;7698;42.478;23.756;2023-01-15T00:44:12;15.05;;;13.38;;
15194;SDS011;7698;42.478;23.756;2023-01-15T00:46:39;12.88;;;10.05;;
15194;SDS011;7698;42.478;23.756;2023-01-15T00:49:06;14.38;;;11.60;;
15194;SDS011;7698;42.478;23.756;2023-01-15T00:51:33;16.98;;;13.18;;
15194;SDS011;7698;42.478;23.756;2023-01-15T00:54:01;15.63;;;12.30;;
15194;SDS011;7698;42.478;23.756;2023-01-15T00:56:29;12.52;;;9.63;;
15194;SDS011;7698;42.478;23.756;2023-01-15T00:58:56;17.70;;;13.57;;
15194;SDS011;7698;42.478;23.756;2023-01-15T01:01:24;17.77;;;12.30;;
15194;SDS011;7698;42.478;23.756;2023-01-15T01:03:51;14.18;;;11.30;;
15194;SDS011;7698;42.478;23.756;2023-01-15T01:06:18;16.45;;;11.85;;
15194;SDS011;7698;42.478;23.756;2023-01-15T01:08:45;18.20;;;13.75;;
15194;SDS011;7698;42.478;23.756;2023-01-15T01:11:15;17.55;;;14.07;;
15194;SDS011;7698;42.478;23.756;2023-01-15T01:13:44;16.77;;;12.90;;
15194;SDS011;7698;42.478;23.756;2023-01-15T01:16:20;15.38;;;11.07;;
15194;SDS011;7698;42.478;23.756;2023-01-15T01:18:49;18.75;;;12.52;;
15194;SDS011;7698;42.478;23.756;2023-01-15T01:21:16;16.85;;;12.73;;
15194;SDS011;7698;42.478;23.756;2023-01-15T01:23:42;17.58;;;13.85;;
15194;SDS011;7698;42.478;23.756;2023-01-15T01:26:09;16.02;;;13.05;;
15194;SDS011;7698;42.478;23.756;2023-01-15T01:28:39;15.00;;;11.73;;
15194;SDS011;7698;42.478;23.756;2023-01-15T01:31:06;18.42;;;13.25;;
15194;SDS011;7698;42.478;23.756;2023-01-15T01:33:34;15.50;;;11.90;;
15194;SDS011;7698;42.478;23.756;2023-01-15T01:36:01;15.30;;;11.77;;
15194;SDS011;7698;42.478;23.756;2023-01-15T01:38:28;14.40;;;12.25;;
15194;SDS011;7698;42.478;23.756;2023-01-15T01:40:55;16.20;;;13.00;;
15194;SDS011;7698;42.478;23.756;2023-01-15T01:43:23;14.30;;;11.57;;
15194;SDS011;7698;42.478;23.756;2023-01-15T01:45:53;15.40;;;11.82;;
15194;SDS011;7698;42.478;23.756;2023-01-15T01:48:22;14.70;;;12.23;;
15194;SDS011;7698;42.478;23.756;2023-01-15T01:50:54;15.15;;;12.13;;
15194;SDS011;7698;42.478;23.756;2023-01-15T01:53:26;16.05;;;12.70;;
15194;SDS011;7698;42.478;23.756;2023-01-15T01:55:54;16.98;;;12.48;;
15194;SDS011;7698;42.478;23.756;2023-01-15T01:58:23;16.27;;;14.25;;
15194;SDS011;7698;42.478;23.756;2023-01-15T02:00:57;13.73;;;10.93;;
15194;SDS011;7698;42.478;23.756;2023-01-15T02:03:26;11.80;;;10.10;;
15194;SDS011;7698;42.478;23.756;2023-01-15T02:05:57;15.05;;;11.65;;
15194;SDS011;7698;42.478;23.756;2023-01-15T02:08:26;17.13;;;13.07;;
15194;SDS011;7698;42.478;23.756;2023-01-15T02:10:54;17.48;;;13.70;;
15194;SDS011;7698;42.478;23.756;2023-01-15T02:13:24;19.75;;;14.57;;
15194;SDS011;7698;42.478;23.756;2023-01-15T02:15:57;17.67;;;12.57;;
15194;SDS011;7698;42.478;23.756;2023-01-15T02:18:30;17.05;;;12.82;;
15194;SDS011;7698;42.478;23.756;2023-01-15T02:21:03;16.23;;;11.90;;
15194;SDS011;7698;42.478;23.756;2023-01-15T02:29:45;16.07;;;12.60;;
15194;SDS011;7698;42.478;23.756;2023-01-15T02:32:18;14.90;;;12.45;;
15194;SDS011;7698;42.478;23.756;2023-01-15T02:34:51;13.85;;;10.50;;
15194;SDS011;7698;42.478;23.756;2023-01-15T02:37:22;14.75;;;11.85;;
15194;SDS011;7698;42.478;23.756;2023-01-15T02:39:52;15.90;;;12.73;;
15194;SDS011;7698;42.478;23.756;2023-01-15T02:42:21;13.27;;;10.23;;
15194;SDS011;7698;42.478;23.756;2023-01-15T02:44:52;12.75;;;11.27;;
15194;SDS011;7698;42.478;23.756;2023-01-15T02:47:23;14.67;;;12.13;;
15194;SDS011;7698;42.478;23.756;2023-01-15T02:49:54;15.82;;;11.65;;
15194;SDS011;7698;42.478;23.756;2023-01-15T02:52:26;15.82;;;12.07;;
15194;SDS011;7698;42.478;23.756;2023-01-15T02:54:57;12.10;;;10.23;;
15194;SDS011;7698;42.478;23.756;2023-01-15T02:57:29;14.68;;;12.35;;
15194;SDS011;7698;42.478;23.756;2023-01-15T03:00:03;15.00;;;11.73;;
15194;SDS011;7698;42.478;23.756;2023-01-15T03:02:34;14.50;;;12.25;;
15194;SDS011;7698;42.478;23.756;2023-01-15T03:05:06;13.27;;;10.43;;
15194;SDS011;7698;42.478;23.756;2023-01-15T03:07:35;14.07;;;10.75;;
15194;SDS011;7698;42.478;23.756;2023-01-15T03:10:07;15.48;;;11.45;;
15194;SDS011;7698;42.478;23.756;2023-01-15T03:12:37;14.80;;;11.18;;
15194;SDS011;7698;42.478;23.756;2023-01-15T03:15:24;15.30;;;11.65;;
15194;SDS011;7698;42.478;23.756;2023-01-15T03:18:16;12.85;;;9.85;;
15194;SDS011;7698;42.478;23.756;2023-01-15T03:20:47;16.40;;;12.07;;
15194;SDS011;7698;42.478;23.756;2023-01-15T03:23:17;13.60;;;10.85;;
15194;SDS011;7698;42.478;23.756;2023-01-15T03:25:46;16.33;;;13.40;;
15194;SDS011;7698;42.478;23.756;2023-01-15T03:28:17;15.65;;;12.60;;
15194;SDS011;7698;42.478;23.756;2023-01-15T03:30:49;15.75;;;12.25;;
15194;SDS011;7698;42.478;23.756;2023-01-15T03:33:16;12.52;;;10.38;;
15194;SDS011;7698;42.478;23.756;2023-01-15T03:35:46;14.30;;;11.55;;
15194;SDS011;7698;42.478;23.756;2023-01-15T03:38:14;14.18;;;10.93;;
15194;SDS011;7698;42.478;23.756;2023-01-15T03:57:22;18.55;;;13.68;;
15194;SDS011;7698;42.478;23.756;2023-01-15T03:59:55;16.70;;;13.00;;
15194;SDS011;7698;42.478;23.756;2023-01-15T04:02:25;15.65;;;11.73;;
15194;SDS011;7698;42.478;23.756;2023-01-15T04:04:55;17.37;;;13.07;;
15194;SDS011;7698;42.478;23.756;2023-01-15T04:07:24;17.73;;;14.52;;
15194;SDS011;7698;42.478;23.756;2023-01-15T04:09:51;16.92;;;13.82;;
15194;SDS011;7698;42.478;23.756;2023-01-15T04:12:18;19.58;;;14.65;;
15194;SDS011;7698;42.478;23.756;2023-01-15T04:14:46;18.02;;;14.02;;
15194;SDS011;7698;42.478;23.756;2023-01-15T04:17:13;16.23;;;13.05;;
15194;SDS011;7698;42.478;23.756;2023-01-15T04:19:40;17.45;;;13.05;;
15194;SDS011;7698;42.478;23.756;2023-01-15T04:22:08;15.75;;;13.60;;
15194;SDS011;7698;42.478;23.756;2023-01-15T04:24:36;16.67;;;13.10;;
15194;SDS011;7698;42.478;23.756;2023-01-15T04:27:03;12.85;;;10.82;;
15194;SDS011;7698;42.478;23.756;2023-01-15T04:29:30;15.63;;;12.25;;
15194;SDS011;7698;42.478;23.756;2023-01-15T04:31:58;15.70;;;12.33;;
15194;SDS011;7698;42.478;23.756;2023-01-15T04:34:25;13.52;;;11.80;;
15194;SDS011;7698;42.478;23.756;2023-01-15T04:36:52;18.08;;;14.02;;
15194;SDS011;7698;42.478;23.756;2023-01-15T04:39:19;16.20;;;13.45;;
15194;SDS011;7698;42.478;23.756;2023-01-15T04:41:47;16.40;;;12.23;;
15194;SDS011;7698;42.478;23.756;2023-01-15T04:44:31;19.17;;;14.82;;
15194;SDS011;7698;42.478;23.756;2023-01-15T04:47:00;15.57;;;12.40;;
15194;SDS011;7698;42.478;23.756;2023-01-15T04:49:27;14.88;;;12.50;;
15194;SDS011;7698;42.478;23.756;2023-01-15T04:51:54;16.08;;;12.23;;
15194;SDS011;7698;42.478;23.756;2023-01-15T04:54:21;12.95;;;10.88;;
15194;SDS011;7698;42.478;23.756;2023-01-15T04:56:48;18.27;;;14.20;;
15194;SDS011;7698;42.478;23.756;2023-01-15T04:59:19;12.20;;;10.00;;
15194;SDS011;7698;42.478;23.756;2023-01-15T05:01:48;14.52;;;12.57;;
15194;SDS011;7698;42.478;23.756;2023-01-15T05:04:16;16.23;;;12.68;;
15194;SDS011;7698;42.478;23.756;2023-01-15T05:06:43;15.50;;;13.05;;
15194;SDS011;7698;42.478;23.756;2023-01-15T05:09:10;16.27;;;12.52;;
15194;SDS011;7698;42.478;23.756;2023-01-15T05:11:37;15.10;;;12.60;;
15194;SDS011;7698;42.478;23.756;2023-01-15T05:14:05;13.18;;;10.88;;
15194;SDS011;7698;42.478;23.756;2023-01-15T05:16:32;12.95;;;11.43;;
15194;SDS011;7698;42.478;23.756;2023-01-15T05:19:00;14.35;;;11.73;;
15194;SDS011;7698;42.478;23.756;2023-01-15T05:21:31;15.73;;;12.82;;
15194;SDS011;7698;42.478;23.756;2023-01-15T05:24:00;13.15;;;11.07;;
15194;SDS011;7698;42.478;23.756;2023-01-15T05:26:29;15.65;;;12.95;;
15194;SDS011;7698;42.478;23.756;2023-01-15T05:28:59;15.80;;;12.50;;
15194;SDS011;7698;42.478;23.756;2023-01-15T05:31:27;16.90;;;13.50;;
15194;SDS011;7698;42.478;23.756;2023-01-15T05:33:55;14.97;;;11.77;;
15194;SDS011;7698;42.478;23.756;2023-01-15T05:36:23;14.80;;;12.10;;
15194;SDS011;7698;42.478;23.756;2023-01-15T05:38:52;13.98;;;11.60;;
15194;SDS011;7698;42.478;23.756;2023-01-15T05:41:19;13.40;;;11.45;;
15194;SDS011;7698;42.478;23.756;2023-01-15T05:44:06;15.48;;;11.77;;
15194;SDS011;7698;42.478;23.756;2023-01-15T05:46:34;14.15;;;10.60;;
15194;SDS011;7698;42.478;23.756;2023-01-15T05:49:04;12.45;;;10.95;;
15194;SDS011;7698;42.478;23.756;2023-01-15T05:51:32;17.90;;;13.80;;
15194;SDS011;7698;42.478;23.756;2023-01-15T05:54:02;18.20;;;14.45;;
15194;SDS011;7698;42.478;23.756;2023-01-15T05:56:30;16.43;;;14.20;;
15194;SDS011;7698;42.478;23.756;2023-01-15T05:58:57;20.70;;;14.75;;
15194;SDS011;7698;42.478;23.756;2023-01-15T06:01:24;14.82;;;12.95;;
15194;SDS011;7698;42.478;23.756;2023-01-15T06:03:50;17.05;;;12.90;;
15194;SDS011;7698;42.478;23.756;2023-01-15T06:06:19;18.90;;;16.08;;
15194;SDS011;7698;42.478;23.756;2023-01-15T06:08:46;24.80;;;19.23;;
15194;SDS011;7698;42.478;23.756;2023-01-15T06:11:14;22.30;;;17.55;;
15194;SDS011;7698;42.478;23.756;2023-01-15T06:13:41;22.27;;;18.83;;
15194;SDS011;7698;42.478;23.756;2023-01-15T06:16:08;19.00;;;15.95;;
15194;SDS011;7698;42.478;23.756;2023-01-15T06:18:35;22.13;;;17.50;;
15194;SDS011;7698;42.478;23.756;2023-01-15T06:21:03;18.02;;;14.95;;
15194;SDS011;7698;42.478;23.756;2023-01-15T06:23:30;17.95;;;15.23;;
15194;SDS011;7698;42.478;23.756;2023-01-15T06:26:00;14.50;;;12.90;;
15194;SDS011;7698;42.478;23.756;2023-01-15T06:28:29;17.63;;;14.50;;
15194;SDS011;7698;42.478;23.756;2023-01-15T06:30:56;13.07;;;11.68;;
15194;SDS011;7698;42.478;23.756;2023-01-15T06:33:23;15.10;;;13.32;;
15194;SDS011;7698;42.478;23.756;2023-01-15T06:35:50;17.50;;;14.15;;
15194;SDS011;7698;42.478;23.756;2023-01-15T06:38:17;16.58;;;13.68;;
15194;SDS011;7698;42.478;23.756;2023-01-15T06:40:44;14.15;;;12.63;;
15194;SDS011;7698;42.478;23.756;2023-01-15T06:43:11;13.40;;;10.90;;
15194;SDS011;7698;42.478;23.756;2023-01-15T06:45:57;12.38;;;10.57;;
15194;SDS011;7698;42.478;23.756;2023-01-15T06:48:41;12.68;;;10.13;;
15194;SDS011;7698;42.478;23.756;2023-01-15T06:51:08;13.98;;;10.38;;
15194;SDS011;7698;42.478;23.756;2023-01-15T06:53:39;15.45;;;11.70;;
15194;SDS011;7698;42.478;23.756;2023-01-15T06:56:06;11.70;;;10.38;;
15194;SDS011;7698;42.478;23.756;2023-01-15T06:58:33;13.18;;;11.27;;
15194;SDS011;7698;42.478;23.756;2023-01-15T07:01:05;13.70;;;11.77;;
15194;SDS011;7698;42.478;23.756;2023-01-15T07:03:33;17.95;;;14.40;;
15194;SDS011;7698;42.478;23.756;2023-01-15T07:06:04;21.33;;;16.20;;
15194;SDS011;7698;42.478;23.756;2023-01-15T07:08:31;16.45;;;14.70;;
15194;SDS011;7698;42.478;23.756;2023-01-15T07:11:00;14.15;;;12.43;;
15194;SDS011;7698;42.478;23.756;2023-01-15T07:13:27;12.88;;;11.52;;
15194;SDS011;7698;42.478;23.756;2023-01-15T07:15:56;17.35;;;15.32;;
15194;SDS011;7698;42.478;23.756;2023-01-15T07:18:25;21.42;;;16.70;;
15194;SDS011;7698;42.478;23.756;2023-01-15T07:20:53;16.10;;;13.43;;
15194;SDS011;7698;42.478;23.756;2023-01-15T07:23:21;15.95;;;13.43;;
15194;SDS011;7698;42.478;23.756;2023-01-15T07:25:49;21.52;;;15.40;;
15194;SDS011;7698;42.478;23.756;2023-01-15T07:28:17;19.52;;;14.82;;
15194;SDS011;7698;42.478;23.756;2023-01-15T07:30:43;15.50;;;12.63;;
15194;SDS011;7698;42.478;23.756;2023-01-15T07:33:10;14.30;;;11.52;;
15194;SDS011;7698;42.478;23.756;2023-01-15T07:35:39;11.93;;;10.73;;
15194;SDS011;7698;42.478;23.756;2023-01-15T07:38:06;13.27;;;11.05;;
15194;SDS011;7698;42.478;23.756;2023-01-15T07:40:33;13.20;;;11.80;;
15194;SDS011;7698;42.478;23.756;2023-01-15T07:43:00;13.27;;;10.35;;
15194;SDS011;7698;42.478;23.756;2023-01-15T07:45:44;14.57;;;13.07;;
15194;SDS011;7698;42.478;23.756;2023-01-15T07:48:29;12.88;;;11.52;;
15194;SDS011;7698;42.478;23.756;2023-01-15T07:51:14;13.32;;;11.55;;
15194;SDS011;7698;42.478;23.756;2023-01-15T07:53:41;13.55;;;11.80;;
15194;SDS011;7698;42.478;23.756;2023-01-15T07:56:08;15.30;;;11.95;;
15194;SDS011;7698;42.478;23.756;2023-01-15T07:58:36;13.10;;;11.55;;
15194;SDS011;7698;42.478;23.756;2023-01-15T08:01:03;13.57;;;11.45;;
15194;SDS011;7698;42.478;23.756;2023-01-15T08:03:30;14.38;;;12.77;;
15194;SDS011;7698;42.478;23.756;2023-01-15T08:05:56;14.30;;;10.82;;
15194;SDS011;7698;42.478;23.756;2023-01-15T08:08:25;13.82;;;11.18;;
15194;SDS011;7698;42.478;23.756;2023-01-15T08:10:52;11.80;;;10.43;;
15194;SDS011;7698;42.478;23.756;2023-01-15T08:13:36;11.10;;;9.55;;
15194;SDS011;7698;42.478;23.756;2023-01-15T08:16:20;13.05;;;11.20;;
15194;SDS011;7698;42.478;23.756;2023-01-15T08:18:47;12.45;;;11.13;;
15194;SDS011;7698;42.478;23.756;2023-01-15T08:21:14;11.20;;;10.00;;
15194;SDS011;7698;42.478;23.756;2023-01-15T08:23:43;12.70;;;10.40;;
15194;SDS011;7698;42.478;23.756;2023-01-15T08:26:11;12.43;;;10.48;;
15194;SDS011;7698;42.478;23.756;2023-01-15T08:28:39;14.32;;;11.90;;
15194;SDS011;7698;42.478;23.756;2023-01-15T08:31:06;12.18;;;9.60;;
15194;SDS011;7698;42.478;23.756;2023-01-15T08:33:33;13.73;;;10.95;;
15194;SDS011;7698;42.478;23.756;2023-01-15T08:36:01;15.38;;;10.95;;
15194;SDS011;7698;42.478;23.756;2023-01-15T08:38:28;15.98;;;12.68;;
15194;SDS011;7698;42.478;23.756;2023-01-15T08:40:56;13.32;;;11.40;;
15194;SDS011;7698;42.478;23.756;2023-01-15T08:43:28;13.93;;;12.43;;
15194;SDS011;7698;42.478;23.756;2023-01-15T08:45:56;12.85;;;11.00;;
15194;SDS011;7698;42.478;23.756;2023-01-15T08:48:23;17.52;;;15.15;;
15194;SDS011;7698;42.478;23.756;2023-01-15T08:50:50;16.73;;;13.63;;
15194;SDS011;7698;42.478;23.756;2023-01-15T08:53:17;12.07;;;10.40;;
15194;SDS011;7698;42.478;23.756;2023-01-15T08:55:45;12.43;;;10.88;;
15194;SDS011;7698;42.478;23.756;2023-01-15T08:58:14;12.38;;;10.85;;
15194;SDS011;7698;42.478;23.756;2023-01-15T09:00:42;12.35;;;10.88;;
15194;SDS011;7698;42.478;23.756;2023-01-15T09:03:09;13.05;;;11.07;;
15194;SDS011;7698;42.478;23.756;2023-01-15T09:05:36;14.40;;;12.57;;
15194;SDS011;7698;42.478;23.756;2023-01-15T09:08:03;13.40;;;11.50;;
15194;SDS011;7698;42.478;23.756;2023-01-15T09:10:31;13.65;;;12.10;;
15194;SDS011;7698;42.478;23.756;2023-01-15T09:12:59;15.65;;;12.98;;
15194;SDS011;7698;42.478;23.756;2023-01-15T09:15:28;12.13;;;10.77;;
15194;SDS011;7698;42.478;23.756;2023-01-15T09:17:56;12.85;;;11.43;;
15194;SDS011;7698;42.478;23.756;2023-01-15T09:20:23;12.80;;;11.30;;
15194;SDS011;7698;42.478;23.756;2023-01-15T09:22:50;11.85;;;10.05;;
15194;SDS011;7698;42.478;23.756;2023-01-15T09:25:17;12.15;;;9.93;;
15194;SDS011;7698;42.478;23.756;2023-01-15T09:27:48;12.75;;;9.85;;
15194;SDS011;7698;42.478;23.756;2023-01-15T09:30:16;12.60;;;10.05;;
15194;SDS011;7698;42.478;23.756;2023-01-15T09:32:46;14.52;;;11.75;;
15194;SDS011;7698;42.478;23.756;2023-01-15T09:35:14;11.95;;;10.75;;
15194;SDS011;7698;42.478;23.756;2023-01-15T09:37:41;13.65;;;11.60;;
15194;SDS011;7698;42.478;23.756;2023-01-15T09:40:14;19.77;;;16.05;;
15194;SDS011;7698;42.478;23.756;2023-01-15T09:42:55;20.48;;;17.98;;
15194;SDS011;7698;42.478;23.756;2023-01-15T09:45:32;23.65;;;18.15;;
15194;SDS011;7698;42.478;23.756;2023-01-15T09:48:09;22.05;;;18.63;;
15194;SDS011;7698;42.478;23.756;2023-01-15T09:50:47;23.27;;;19.73;;
15194;SDS011;7698;42.478;23.756;2023-01-15T09:53:41;24.95;;;21.75;;
15194;SDS011;7698;42.478;23.756;2023-01-15T09:56:19;25.20;;;22.08;;
15194;SDS011;7698;42.478;23.756;2023-01-15T09:58:48;25.23;;;21.23;;
15194;SDS011;7698;42.478;23.756;2023-01-15T10:01:18;20.50;;;18.30;;
15194;SDS011;7698;42.478;23.756;2023-01-15T10:03:48;21.88;;;19.00;;
15194;SDS011;7698;42.478;23.756;2023-01-15T10:06:20;21.33;;;18.38;;
15194;SDS011;7698;42.478;23.756;2023-01-15T10:08:50;22.88;;;19.15;;
15194;SDS011;7698;42.478;23.756;2023-01-15T10:11:28;19.70;;;17.17;;
15194;SDS011;7698;42.478;23.756;2023-01-15T10:14:28;20.73;;;17.83;;
15194;SDS011;7698;42.478;23.756;2023-01-15T10:17:04;15.27;;;12.35;;
15194;SDS011;7698;42.478;23.756;2023-01-15T10:19:41;14.75;;;12.95;;
15194;SDS011;7698;42.478;23.756;2023-01-15T10:22:09;14.40;;;12.85;;
15194;SDS011;7698;42.478;23.756;2023-01-15T10:24:47;11.35;;;10.25;;
15194;SDS011;7698;42.478;23.756;2023-01-15T10:27:21;13.07;;;11.70;;
15194;SDS011;7698;42.478;23.756;2023-01-15T10:29:52;12.10;;;10.88;;
15194;SDS011;7698;42.478;23.756;2023-01-15T10:32:27;11.35;;;9.88;;
15194;SDS011;7698;42.478;23.756;2023-01-15T10:35:08;14.10;;;12.48;;
15194;SDS011;7698;42.478;23.756;2023-01-15T10:37:50;12.45;;;10.95;;
15194;SDS011;7698;42.478;23.756;2023-01-15T10:40:33;11.88;;;10.65;;
15194;SDS011;7698;42.478;23.756;2023-01-15T10:43:11;12.15;;;10.75;;
15194;SDS011;7698;42.478;23.756;2023-01-15T10:45:45;11.07;;;9.55;;
15194;SDS011;7698;42.478;23.756;2023-01-15T10:48:18;11.02;;;9.95;;
15194;SDS011;7698;42.478;23.756;2023-01-15T10:50:52;11.43;;;10.23;;
15194;SDS011;7698;42.478;23.756;2023-01-15T10:53:24;10.40;;;9.30;;
15194;SDS011;7698;42.478;23.756;2023-01-15T10:55:57;11.30;;;10.20;;
15194;SDS011;7698;42.478;23.756;2023-01-15T10:58:33;12.32;;;11.02;;
15194;SDS011;7698;42.478;23.756;2023-01-15T11:01:05;12.00;;;10.25;;
15194;SDS011;7698;42.478;23.756;2023-01-15T11:03:36;9.70;;;8.40;;
15194;SDS011;7698;42.478;23.756;2023-01-15T11:06:07;10.65;;;9.55;;
15194;SDS011;7698;42.478;23.756;2023-01-15T11:08:39;11.00;;;9.90;;
15194;SDS011;7698;42.478;23.756;2023-01-15T11:11:13;12.18;;;10.85;;
15194;SDS011;7698;42.478;23.756;2023-01-15T11:13:50;11.20;;;10.00;;
15194;SDS011;7698;42.478;23.756;2023-01-15T11:16:36;12.25;;;10.95;;
15194;SDS011;7698;42.478;23.756;2023-01-15T11:19:24;11.10;;;9.95;;
15194;SDS011;7698;42.478;23.756;2023-01-15T11:22:12;11.95;;;10.43;;
15194;SDS011;7698;42.478;23.756;2023-01-15T11:24:45;9.18;;;7.97;;
15194;SDS011;7698;42.478;23.756;2023-01-15T11:27:14;11.07;;;9.98;;
15194;SDS011;7698;42.478;23.756;2023-01-15T11:29:43;12.10;;;10.82;;
15194;SDS011;7698;42.478;23.756;2023-01-15T11:32:24;10.35;;;9.30;;
15194;SDS011;7698;42.478;23.756;2023-01-15T11:34:55;11.13;;;10.00;;
15194;SDS011;7698;42.478;23.756;2023-01-15T11:37:24;11.40;;;10.18;;
15194;SDS011;7698;42.478;23.756;2023-01-15T11:39:54;15.63;;;10.57;;
15194;SDS011;7698;42.478;23.756;2023-01-15T11:42:22;12.23;;;10.88;;
15194;SDS011;7698;42.478;23.756;2023-01-15T11:45:14;12.43;;;11.13;;
15194;SDS011;7698;42.478;23.756;2023-01-15T11:48:00;10.45;;;9.45;;
15194;SDS011;7698;42.478;23.756;2023-01-15T11:50:49;11.55;;;10.32;;
15194;SDS011;7698;42.478;23.756;2023-01-15T11:53:20;10.18;;;9.18;;
15194;SDS011;7698;42.478;23.756;2023-01-15T11:55:49;10.45;;;9.43;;
15194;SDS011;7698;42.478;23.756;2023-01-15T11:58:19;8.88;;;8.02;;
15194;SDS011;7698;42.478;23.756;2023-01-15T12:00:49;10.18;;;9.18;;
15194;SDS011;7698;42.478;23.756;2023-01-15T12:03:19;12.75;;;11.32;;
15194;SDS011;7698;42.478;23.756;2023-01-15T12:05:52;10.85;;;9.85;;
15194;SDS011;7698;42.478;23.756;2023-01-15T12:08:25;11.25;;;10.10;;
15194;SDS011;7698;42.478;23.756;2023-01-15T12:11:04;10.55;;;9.52;;
15194;SDS011;7698;42.478;23.756;2023-01-15T12:13:42;11.23;;;10.13;;
15194;SDS011;7698;42.478;23.756;2023-01-15T12:16:20;11.32;;;10.18;;
15194;SDS011;7698;42.478;23.756;2023-01-15T12:18:54;11.05;;;9.88;;
15194;SDS011;7698;42.478;23.756;2023-01-15T12:21:36;11.93;;;10.70;;
15194;SDS011;7698;42.478;23.756;2023-01-15T12:24:25;12.05;;;10.10;;
15194;SDS011;7698;42.478;23.756;2023-01-15T12:27:08;10.75;;;9.57;;
15194;SDS011;7698;42.478;23.756;2023-01-15T12:29:47;10.57;;;9.27;;
15194;SDS011;7698;42.478;23.756;2023-01-15T12:32:19;11.15;;;9.82;;
15194;SDS011;7698;42.478;23.756;2023-01-15T12:34:51;11.23;;;10.02;;
15194;SDS011;7698;42.478;23.756;2023-01-15T12:37:24;12.93;;;10.85;;
15194;SDS011;7698;42.478;23.756;2023-01-15T12:39:56;12.10;;;10.90;;
15194;SDS011;7698;42.478;23.756;2023-01-15T12:42:28;10.52;;;9.50;;
15194;SDS011;7698;42.478;23.756;2023-01-15T12:45:15;11.70;;;10.52;;
15194;SDS011;7698;42.478;23.756;2023-01-15T12:47:45;12.88;;;11.57;;
15194;SDS011;7698;42.478;23.756;2023-01-15T12:50:27;12.98;;;11.68;;
15194;SDS011;7698;42.478;23.756;2023-01-15T12:53:03;14.65;;;12.18;;
15194;SDS011;7698;42.478;23.756;2023-01-15T12:55:39;11.65;;;10.27;;
15194;SDS011;7698;42.478;23.756;2023-01-15T12:58:16;14.35;;;12.85;;
15194;SDS011;7698;42.478;23.756;2023-01-15T13:00:56;15.13;;;13.52;;
15194;SDS011;7698;42.478;23.756;2023-01-15T13:03:31;15.25;;;13.38;;
15194;SDS011;7698;42.478;23.756;2023-01-15T13:06:05;14.82;;;13.43;;
15194;SDS011;7698;42.478;23.756;2023-01-15T13:08:34;15.82;;;13.60;;
15194;SDS011;7698;42.478;23.756;2023-01-15T13:11:10;12.90;;;11.38;;
15194;SDS011;7698;42.478;23.756;2023-01-15T13:13:38;17.02;;;15.20;;
15194;SDS011;7698;42.478;23.756;2023-01-15T13:16:10;15.18;;;13.60;;
15194;SDS011;7698;42.478;23.756;2023-01-15T13:18:45;13.77;;;12.32;;
15194;SDS011;7698;42.478;23.756;2023-01-15T13:21:20;15.70;;;13.50;;
15194;SDS011;7698;42.478;23.756;2023-01-15T13:23:56;13.65;;;12.07;;
15194;SDS011;7698;42.478;23.756;2023-01-15T13:26:40;16.30;;;14.68;;
15194;SDS011;7698;42.478;23.756;2023-01-15T13:29:20;17.02;;;14.10;;
15194;SDS011;7698;42.478;23.756;2023-01-15T13:31:59;14.80;;;13.20;;
15194;SDS011;7698;42.478;23.756;2023-01-15T13:34:35;13.80;;;12.35;;
15194;SDS011;7698;42.478;23.756;2023-01-15T13:37:11;14.18;;;12.52;;
15194;SDS011;7698;42.478;23.756;2023-01-15T13:39:45;18.25;;;15.77;;
15194;SDS011;7698;42.478;23.756;2023-01-15T13:42:16;19.02;;;17.02;;
15194;SDS011;7698;42.478;23.756;2023-01-15T13:44:59;18.63;;;16.23;;
15194;SDS011;7698;42.478;23.756;2023-01-15T13:47:30;18.63;;;16.63;;
15194;SDS011;7698;42.478;23.756;2023-01-15T13:50:00;18.00;;;16.02;;
15194;SDS011;7698;42.478;23.756;2023-01-15T13:52:30;16.67;;;14.90;;
15194;SDS011;7698;42.478;23.756;2023-01-15T13:54:59;16.27;;;14.43;;
15194;SDS011;7698;42.478;23.756;2023-01-15T13:57:36;18.63;;;16.73;;
15194;SDS011;7698;42.478;23.756;2023-01-15T14:00:05;15.55;;;13.82;;
15194;SDS011;7698;42.478;23.756;2023-01-15T14:02:34;16.05;;;13.93;;
15194;SDS011;7698;42.478;23.756;2023-01-15T14:05:11;17.65;;;14.63;;
15194;SDS011;7698;42.478;23.756;2023-01-15T14:07:50;17.98;;;15.85;;
15194;SDS011;7698;42.478;23.756;2023-01-15T14:10:24;20.38;;;18.13;;
15194;SDS011;7698;42.478;23.756;2023-01-15T14:13:11;21.35;;;19.13;;
15194;SDS011;7698;42.478;23.756;2023-01-15T14:15:55;15.07;;;13.38;;
15194;SDS011;7698;42.478;23.756;2023-01-15T14:18:50;14.82;;;12.90;;
15194;SDS011;7698;42.478;23.756;2023-01-15T14:21:36;16.15;;;14.35;;
15194;SDS011;7698;42.478;23.756;2023-01-15T14:27:25;17.85;;;15.98;;
15194;SDS011;7698;42.478;23.756;2023-01-15T14:30:11;17.58;;;14.85;;
15194;SDS011;7698;42.478;23.756;2023-01-15T14:32:54;20.23;;;16.10;;
15194;SDS011;7698;42.478;23.756;2023-01-15T14:35:32;17.63;;;15.50;;
15194;SDS011;7698;42.478;23.756;2023-01-15T14:38:02;17.33;;;15.23;;
15194;SDS011;7698;42.478;23.756;2023-01-15T14:40:32;16.75;;;14.88;;
15194;SDS011;7698;42.478;23.756;2023-01-15T14:43:01;16.40;;;13.65;;
15194;SDS011;7698;42.478;23.756;2023-01-15T14:45:37;16.00;;;13.95;;
15194;SDS011;7698;42.478;23.756;2023-01-15T14:48:16;15.50;;;13.82;;
15194;SDS011;7698;42.478;23.756;2023-01-15T14:50:45;14.70;;;13.13;;
15194;SDS011;7698;42.478;23.756;2023-01-15T14:56:04;16.90;;;15.10;;
15194;SDS011;7698;42.478;23.756;2023-01-15T14:58:41;15.18;;;12.68;;
15194;SDS011;7698;42.478;23.756;2023-01-15T15:01:20;14.77;;;13.27;;
15194;SDS011;7698;42.478;23.756;2023-01-15T15:03:57;15.27;;;12.82;;
15194;SDS011;7698;42.478;23.756;2023-01-15T15:06:28;14.50;;;12.35;;
15194;SDS011;7698;42.478;23.756;2023-01-15T15:08:57;15.70;;;13.52;;
15194;SDS011;7698;42.478;23.756;2023-01-15T15:11:31;14.73;;;12.98;;
15194;SDS011;7698;42.478;23.756;2023-01-15T15:14:21;19.33;;;16.70;;
15194;SDS011;7698;42.478;23.756;2023-01-15T15:16:52;35.05;;;28.27;;
15194;SDS011;7698;42.478;23.756;2023-01-15T15:19:26;23.38;;;20.63;;